Absecon City, New Jersey
Current Conditions -  °F | °C
As of 11:54 AM on Friday 24 Oct 2014 (Local Time) from KACY Reporting Station
Broken Clouds Broken Clouds  
Wind Chill: 17°   Ceiling: 4100
Heat Index: 17°   Visibility: 10mi
Dew Point:   Wind: 13mph
Humidity: 56%   Direction: 330°NNW
Pressure: 29.85"   Gusts: NA
Location:  39.4315°N, 74.5003°W
Report Text: KACY 241554Z 33011KT 10SM BKN041 17/08 A2985 RMK AO2 SLP106 T01670078
Loading
Personal Weather Stations






























Interactive Weather Map
Tropical Storm Tracking
New forecast layout! Learn more

10-Day Weather Forecast

Advertisements
Track Severe Weather on mobile